Time;durP1;ratioP1;P1;durP2;ratioP2;P2;SDS_P1;SDS_P2;PMS_P1;PMS_P2;Temp;Humidity;BMP_temperature;BMP_pressure;BME280_temperature;BME280_humidity;BME280_pressure;Samples;Min_cycle;Max_cycle;Signal;HPM_P1;HPM_P2
2022/02/17 00:01:43;;;;;;;0.40;0.20;;;11.00;6.80;;;;;;5038296;28;20033;-71
2022/02/17 00:04:08;;;;;;;0.22;0.22;;;11.10;1.30;;;;;;5038020;28;20129;-71
2022/02/17 00:06:34;;;;;;;0.95;0.20;;;11.10;16.90;;;;;;5037967;28;20124;-71
2022/02/17 00:09:00;;;;;;;0.10;0.10;;;11.00;37.20;;;;;;5038219;28;20091;-71
2022/02/17 00:11:26;;;;;;;2.72;0.20;;;11.00;55.90;;;;;;5038442;28;20040;-71
2022/02/17 00:13:51;;;;;;;0.10;0.10;;;10.90;65.80;;;;;;5037883;28;20072;-71
2022/02/17 00:16:17;;;;;;;0.22;0.15;;;10.90;75.30;;;;;;5038175;28;20128;-71
2022/02/17 00:18:43;;;;;;;0.10;0.10;;;10.90;84.40;;;;;;5038025;28;20079;-71
2022/02/17 00:21:09;;;;;;;0.10;0.10;;;10.90;85.60;;;;;;5037713;28;20429;-71
2022/02/17 00:23:35;;;;;;;0.77;0.20;;;10.80;93.30;;;;;;5038092;28;20129;-71
2022/02/17 00:26:01;;;;;;;0.22;0.20;;;10.80;99.10;;;;;;5037614;28;20071;-71
2022/02/17 00:28:26;;;;;;;0.63;0.17;;;10.90;80.80;;;;;;5037850;28;20128;-71
2022/02/17 00:30:52;;;;;;;0.20;0.20;;;11.00;36.60;;;;;;5038383;28;20476;-71
2022/02/17 00:33:19;;;;;;;0.40;0.10;;;10.90;39.80;;;;;;5037916;28;20110;-71
2022/02/17 00:35:45;;;;;;;0.25;0.22;;;11.00;61.60;;;;;;5037595;28;20079;-71
2022/02/17 00:38:10;;;;;;;0.20;0.20;;;10.90;64.50;;;;;;5037667;28;20447;-71
2022/02/17 00:40:36;;;;;;;0.50;0.28;;;11.10;29.70;;;;;;5038114;28;20083;-71
2022/02/17 00:43:02;;;;;;;0.30;0.30;;;11.00;39.30;;;;;;5037349;28;20396;-71
2022/02/17 00:45:28;;;;;;;0.40;0.40;;;11.20;20.30;;;;;;5037545;28;20041;-71
2022/02/17 00:47:54;;;;;;;1.15;0.40;;;11.20;16.70;;;;;;5037382;28;20123;-71
2022/02/17 00:50:19;;;;;;;0.55;0.43;;;11.20;37.90;;;;;;5037188;28;20037;-71
2022/02/17 00:52:46;;;;;;;1.00;0.60;;;11.20;11.00;;;;;;5037759;28;20053;-71
2022/02/17 00:55:12;;;;;;;0.47;0.40;;;11.30;10.00;;;;;;5037276;28;20079;-71
2022/02/17 00:57:37;;;;;;;0.65;0.52;;;11.30;25.10;;;;;;5036798;28;20041;-71
2022/02/17 01:00:05;;;;;;;4.53;0.80;;;11.40;21.90;;;;;;5037275;28;20065;-71
2022/02/17 01:02:30;;;;;;;0.68;0.60;;;11.40;20.50;;;;;;5036343;28;20071;-71
2022/02/17 01:04:56;;;;;;;1.42;0.60;;;11.30;44.60;;;;;;5037344;28;20116;-71
2022/02/17 01:07:22;;;;;;;0.70;0.30;;;11.20;55.60;;;;;;5036844;28;20041;-71
2022/02/17 01:09:48;;;;;;;0.20;0.20;;;11.20;60.70;;;;;;5037354;28;20047;-71
2022/02/17 01:12:14;;;;;;;0.20;0.20;;;11.20;55.20;;;;;;5037208;28;20045;-71
2022/02/17 01:14:39;;;;;;;0.20;0.20;;;11.20;35.80;;;;;;5037627;28;20033;-71
2022/02/17 01:17:05;;;;;;;0.32;0.32;;;11.30;32.70;;;;;;5036936;28;20507;-71
2022/02/17 01:19:31;;;;;;;0.80;0.40;;;11.20;38.60;;;;;;5037210;28;20116;-71
2022/02/17 01:21:57;;;;;;;1.27;0.60;;;11.20;15.50;;;;;;5037348;28;20480;-71
2022/02/17 01:24:23;;;;;;;3.05;0.60;;;11.30;14.60;;;;;;5036880;28;20083;-71
2022/02/17 01:26:49;;;;;;;2.58;0.70;;;11.30;17.50;;;;;;5036636;28;20056;-71
2022/02/17 01:29:14;;;;;;;1.98;0.70;;;11.20;4.10;;;;;;5037043;28;20163;-71
2022/02/17 01:31:40;;;;;;;3.88;0.85;;;11.30;1.00;;;;;;5036944;28;20037;-71
2022/02/17 01:34:08;;;;;;;1.48;0.65;;;11.30;1.00;;;;;;5036740;28;20500;-71
2022/02/17 01:36:34;;;;;;;0.50;0.40;;;11.30;1.00;;;;;;5037140;28;20037;-71
2022/02/17 01:39:00;;;;;;;1.73;0.80;;;11.30;1.00;;;;;;5036935;28;20042;-71
2022/02/17 01:41:26;;;;;;;0.80;0.55;;;11.20;3.50;;;;;;5036480;28;20554;-71
2022/02/17 01:43:52;;;;;;;0.82;0.38;;;11.20;1.00;;;;;;5036400;28;20068;-71
2022/02/17 01:46:35;;;;;;;0.20;0.20;;;11.30;1.00;;;;;;5036421;28;20041;-71
2022/02/17 01:49:03;;;;;;;1.75;0.30;;;11.30;1.00;;;;;;5036111;28;20034;-71
2022/02/17 01:51:30;;;;;;;0.70;0.30;;;11.30;1.00;;;;;;5036507;28;20048;-71
2022/02/17 01:53:57;;;;;;;0.45;0.20;;;11.30;1.00;;;;;;5036630;28;20197;-71
2022/02/17 01:56:23;;;;;;;0.98;0.40;;;11.30;1.00;;;;;;5036197;28;20094;-71
2022/02/17 01:58:49;;;;;;;0.43;0.32;;;11.30;1.00;;;;;;5036300;28;20041;-71
2022/02/17 02:01:15;;;;;;;0.43;0.30;;;11.10;5.20;;;;;;5036062;28;20114;-71
2022/02/17 02:03:42;;;;;;;0.20;0.20;;;11.10;7.20;;;;;;5036236;28;20045;-71
2022/02/17 02:06:08;;;;;;;0.20;0.20;;;11.00;22.70;;;;;;5036559;28;20041;-71
2022/02/17 02:08:34;;;;;;;0.20;0.20;;;11.10;4.90;;;;;;5035961;28;20112;-71
2022/02/17 02:11:00;;;;;;;0.25;0.25;;;11.00;8.20;;;;;;5036057;28;20045;-71
2022/02/17 02:13:26;;;;;;;3.55;0.40;;;11.10;2.80;;;;;;5036031;28;20057;-71
2022/02/17 02:15:53;;;;;;;0.98;0.73;;;11.10;1.00;;;;;;5036353;28;20117;-71
2022/02/17 02:18:20;;;;;;;0.40;0.20;;;11.00;4.50;;;;;;5035906;28;20045;-71
2022/02/17 02:20:51;;;;;;;1.70;0.20;;;11.10;1.10;;;;;;5036034;28;20041;-71
2022/02/17 02:23:18;;;;;;;0.20;0.20;;;11.00;6.90;;;;;;5036142;28;20130;-71
2022/02/17 02:25:50;;;;;;;0.30;0.30;;;11.00;5.60;;;;;;5035580;28;20091;-71
2022/02/17 02:28:24;;;;;;;0.30;0.30;;;11.00;2.30;;;;;;5035718;28;20041;-71
2022/02/17 02:30:51;;;;;;;0.80;0.40;;;11.10;1.00;;;;;;5035524;28;20037;-71
2022/02/17 02:33:18;;;;;;;2.63;0.50;;;11.20;1.00;;;;;;5036090;28;20057;-71
2022/02/17 02:35:44;;;;;;;1.35;0.43;;;11.20;1.00;;;;;;5036209;28;20082;-71
2022/02/17 02:38:14;;;;;;;0.77;0.52;;;11.10;5.60;;;;;;5035708;28;20072;-71
2022/02/17 02:40:40;;;;;;;1.55;0.50;;;11.10;11.20;;;;;;5035363;28;20480;-71
2022/02/17 02:43:07;;;;;;;1.25;0.50;;;11.00;15.90;;;;;;5035577;28;20056;-71
2022/02/17 02:45:33;;;;;;;1.15;0.40;;;11.00;26.30;;;;;;5035574;28;20120;-71
2022/02/17 02:48:05;;;;;;;0.28;0.28;;;11.10;23.20;;;;;;5017957;28;20515;-71
2022/02/17 02:50:31;;;;;;;1.95;0.30;;;11.10;23.20;;;;;;5035541;28;20067;-71
2022/02/17 02:52:57;;;;;;;0.85;0.20;;;11.20;10.10;;;;;;5035543;28;20511;-71
2022/02/17 02:55:22;;;;;;;1.02;0.40;;;11.30;1.50;;;;;;5035416;28;20067;-71
2022/02/17 02:57:48;;;;;;;1.40;0.40;;;11.30;2.90;;;;;;5034942;28;20045;-71
2022/02/17 03:00:14;;;;;;;1.38;0.50;;;11.20;22.20;;;;;;5035487;28;20065;-71
2022/02/17 03:02:40;;;;;;;0.40;0.40;;;11.10;36.10;;;;;;5035478;28;20073;-71
2022/02/17 03:05:07;;;;;;;0.57;0.25;;;11.10;29.30;;;;;;5034918;28;20529;-71
2022/02/17 03:07:32;;;;;;;0.65;0.40;;;11.10;23.40;;;;;;5034930;28;20072;-71
2022/02/17 03:09:58;;;;;;;0.63;0.30;;;11.10;17.10;;;;;;5035195;28;20488;-71
2022/02/17 03:12:24;;;;;;;0.73;0.40;;;11.20;15.20;;;;;;5034538;28;20048;-71
2022/02/17 03:14:50;;;;;;;1.15;0.20;;;11.10;22.80;;;;;;5035431;28;20040;-71
2022/02/17 03:17:16;;;;;;;0.20;0.20;;;11.10;17.70;;;;;;5034795;28;20065;-71
2022/02/17 03:19:41;;;;;;;1.27;0.30;;;11.20;21.60;;;;;;5034752;28;20033;-71
2022/02/17 03:22:07;;;;;;;0.32;0.15;;;11.10;17.20;;;;;;5034948;28;20045;-71
2022/02/17 03:24:33;;;;;;;1.00;0.20;;;11.20;15.20;;;;;;5034957;28;20037;-71
2022/02/17 03:26:59;;;;;;;1.75;0.30;;;11.20;25.40;;;;;;5033730;28;20033;-71
2022/02/17 03:29:25;;;;;;;0.50;0.10;;;11.20;27.80;;;;;;5034327;28;20473;-71
2022/02/17 03:31:51;;;;;;;0.80;0.13;;;11.10;34.50;;;;;;5034621;28;20132;-71
2022/02/17 03:34:17;;;;;;;0.17;0.10;;;11.10;21.10;;;;;;5034601;28;20511;-71
2022/02/17 03:36:42;;;;;;;0.90;0.20;;;11.10;23.10;;;;;;5034517;28;20442;-71
2022/02/17 03:39:08;;;;;;;0.20;0.20;;;11.20;16.40;;;;;;5034263;28;20037;-71
2022/02/17 03:41:34;;;;;;;0.47;0.28;;;11.20;18.90;;;;;;5034549;28;20041;-71
2022/02/17 03:44:01;;;;;;;0.68;0.20;;;11.10;40.40;;;;;;5033597;28;20590;-71
2022/02/17 03:46:27;;;;;;;0.28;0.10;;;11.20;17.50;;;;;;5034415;28;20037;-71
2022/02/17 03:48:53;;;;;;;0.80;0.38;;;11.20;11.20;;;;;;5034242;28;20049;-71
2022/02/17 03:51:19;;;;;;;0.85;0.20;;;11.10;29.20;;;;;;5034328;28;20444;-71
2022/02/17 03:53:45;;;;;;;0.35;0.17;;;11.20;31.60;;;;;;5034514;28;20045;-71
2022/02/17 03:56:10;;;;;;;0.43;0.10;;;11.10;38.50;;;;;;5034045;28;20025;-71
2022/02/17 04:01:21;;;;;;;0.25;0.13;;;11.20;29.10;;;;;;5033749;28;20427;-71
2022/02/17 04:03:47;;;;;;;0.20;0.20;;;11.20;28.50;;;;;;5034204;28;20045;-71
2022/02/17 04:06:12;;;;;;;0.10;0.10;;;11.30;27.30;;;;;;5034399;28;20072;-71
2022/02/17 04:08:38;;;;;;;0.25;0.20;;;11.20;28.40;;;;;;5034236;28;20046;-71
2022/02/17 04:11:04;;;;;;;0.10;0.10;;;11.30;20.90;;;;;;5034256;28;20041;-71
2022/02/17 04:13:30;;;;;;;0.20;0.20;;;11.20;34.50;;;;;;5034227;28;20379;-71
2022/02/17 04:15:56;;;;;;;0.38;0.22;;;11.10;45.20;;;;;;5034922;28;20042;-71
2022/02/17 04:18:22;;;;;;;0.20;0.20;;;11.20;52.70;;;;;;5034463;28;20431;-71
2022/02/17 04:20:48;;;;;;;0.30;0.30;;;11.20;65.30;;;;;;5034154;28;20042;-71
2022/02/17 04:23:14;;;;;;;0.30;0.20;;;11.20;54.80;;;;;;5034274;28;20125;-71
2022/02/17 04:25:40;;;;;;;0.35;0.20;;;11.20;61.70;;;;;;5034389;28;20570;-71
2022/02/17 04:28:06;;;;;;;0.10;0.10;;;11.10;53.90;;;;;;5034179;28;20500;-71
2022/02/17 04:30:32;;;;;;;0.28;0.10;;;11.20;41.30;;;;;;5034049;28;20033;-71
2022/02/17 04:33:02;;;;;;;0.47;0.20;;;11.20;40.50;;;;;;5034067;28;20461;-71
2022/02/17 04:35:28;;;;;;;0.22;0.20;;;11.20;59.90;;;;;;5034304;28;20075;-71
2022/02/17 04:37:54;;;;;;;0.10;0.10;;;11.10;59.50;;;;;;5035912;28;20073;-71
2022/02/17 04:42:17;;;;;;;0.85;0.25;;;11.10;77.20;;;;;;5037957;28;20128;-71
2022/02/17 04:43:06;;;;;;;0.82;0.15;;;11.20;68.50;;;;;;5036996;28;20091;-71
2022/02/17 04:45:32;;;;;;;1.83;0.10;;;11.20;46.80;;;;;;5038106;28;20061;-71
2022/02/17 04:47:58;;;;;;;0.57;0.20;;;11.30;39.30;;;;;;5037674;28;20037;-71
2022/02/17 04:50:24;;;;;;;0.20;0.20;;;11.30;43.30;;;;;;5038038;28;20041;-71
2022/02/17 04:52:51;;;;;;;0.10;0.10;;;11.30;41.20;;;;;;5037943;28;20476;-71
2022/02/17 04:55:16;;;;;;;0.30;0.15;;;11.30;41.90;;;;;;5037695;28;20048;-71
2022/02/17 04:57:42;;;;;;;0.15;0.15;;;11.20;58.10;;;;;;5037174;28;20042;-71
2022/02/17 05:00:09;;;;;;;0.50;0.20;;;11.10;74.60;;;;;;5037307;28;20045;-71
2022/02/17 05:02:36;;;;;;;0.57;0.30;;;11.10;77.50;;;;;;5037746;28;20103;-71
2022/02/17 05:05:04;;;;;;;1.25;0.20;;;11.10;79.00;;;;;;5037446;28;20056;-71
2022/02/17 05:07:30;;;;;;;1.27;0.20;;;11.30;57.70;;;;;;5044594;28;20037;-71
2022/02/17 05:09:56;;;;;;;0.63;0.20;;;11.20;64.60;;;;;;5050714;28;20036;-71
2022/02/17 05:12:22;;;;;;;0.20;0.17;;;11.20;69.10;;;;;;5056768;28;20056;-71
2022/02/17 05:14:48;;;;;;;0.20;0.20;;;11.20;68.10;;;;;;5056866;28;20041;-71
2022/02/17 05:17:14;;;;;;;1.10;0.65;;;11.30;71.70;;;;;;5055275;28;20072;-70
2022/02/17 05:19:40;;;;;;;0.30;0.30;;;11.20;90.20;;;;;;5050776;28;20122;-71
2022/02/17 05:22:06;;;;;;;0.45;0.20;;;11.20;86.40;;;;;;5043820;28;20037;-70
2022/02/17 05:24:32;;;;;;;0.30;0.20;;;11.10;96.20;;;;;;5052915;28;20036;-71
2022/02/17 05:26:57;;;;;;;0.47;0.20;;;11.10;99.90;;;;;;5056515;28;20124;-71
2022/02/17 05:29:23;;;;;;;0.88;0.20;;;11.10;99.90;;;;;;5056288;28;20094;-71
2022/02/17 05:31:49;;;;;;;0.60;0.30;;;11.20;82.50;;;;;;5055186;28;20086;-71
2022/02/17 05:34:17;;;;;;;0.20;0.20;;;11.10;99.90;;;;;;5056618;28;20119;-73
2022/02/17 05:36:43;;;;;;;0.30;0.30;;;11.10;97.10;;;;;;5055598;28;20037;-73
2022/02/17 05:39:09;;;;;;;2.25;0.40;;;11.00;99.90;;;;;;5056304;28;20041;-72
2022/02/17 05:41:35;;;;;;;1.30;0.20;;;11.00;99.90;;;;;;5056214;28;20060;-72
2022/02/17 05:44:00;;;;;;;0.28;0.20;;;11.00;99.90;;;;;;5056226;28;20041;-72
2022/02/17 05:46:26;;;;;;;0.38;0.20;;;11.10;99.90;;;;;;5056047;28;20036;-72
2022/02/17 05:48:52;;;;;;;0.52;0.30;;;11.10;99.90;;;;;;5055152;28;20511;-72
2022/02/17 05:51:19;;;;;;;0.75;0.40;;;11.10;99.90;;;;;;5055944;28;20495;-72
2022/02/17 05:53:45;;;;;;;0.85;0.17;;;11.10;96.20;;;;;;5056405;28;20053;-72
2022/02/17 05:56:12;;;;;;;0.55;0.20;;;11.10;96.00;;;;;;5056198;28;20045;-72
2022/02/17 05:58:37;;;;;;;1.02;0.30;;;11.10;93.70;;;;;;5055574;28;20044;-72
2022/02/17 06:01:03;;;;;;;0.40;0.40;;;11.20;93.10;;;;;;5055651;28;20033;-73
2022/02/17 06:03:30;;;;;;;0.50;0.20;;;11.10;99.90;;;;;;5055909;28;20075;-72
2022/02/17 06:05:56;;;;;;;0.20;0.20;;;11.10;99.90;;;;;;5055730;28;20032;-73
2022/02/17 06:08:23;;;;;;;0.70;0.40;;;11.10;99.90;;;;;;5055925;28;20052;-73
2022/02/17 06:10:49;;;;;;;0.50;0.50;;;11.10;99.90;;;;;;5055867;28;20131;-72
2022/02/17 06:13:15;;;;;;;1.23;0.40;;;11.10;96.80;;;;;;5055478;28;20049;-72
2022/02/17 06:15:41;;;;;;;0.30;0.30;;;11.10;99.90;;;;;;5056064;28;20103;-73
2022/02/17 06:18:07;;;;;;;0.30;0.30;;;11.10;99.90;;;;;;5055723;28;20084;-72
2022/02/17 06:20:33;;;;;;;0.20;0.20;;;11.20;99.90;;;;;;5055707;28;20041;-72
2022/02/17 06:23:00;;;;;;;0.20;0.20;;;11.10;99.10;;;;;;5055667;28;20052;-72
2022/02/17 06:25:26;;;;;;;0.77;0.43;;;11.20;96.50;;;;;;5055823;28;20488;-72
2022/02/17 06:27:52;;;;;;;1.10;0.20;;;11.30;77.90;;;;;;5055008;28;20059;-72
2022/02/17 06:30:21;;;;;;;0.68;0.30;;;11.30;77.60;;;;;;5055493;28;20044;-72
2022/02/17 06:32:52;;;;;;;0.13;0.13;;;11.30;95.50;;;;;;5055592;28;20040;-72
2022/02/17 06:35:24;;;;;;;0.70;0.28;;;11.20;99.90;;;;;;5055008;28;20051;-72
2022/02/17 06:37:51;;;;;;;0.50;0.38;;;11.20;90.30;;;;;;5055512;28;20122;-72
2022/02/17 06:40:17;;;;;;;0.65;0.30;;;11.20;98.20;;;;;;5055334;28;20047;-72
2022/02/17 06:42:43;;;;;;;0.65;0.20;;;11.20;99.90;;;;;;5054964;28;20044;-72
2022/02/17 06:45:10;;;;;;;0.50;0.30;;;11.20;86.20;;;;;;5054947;28;20032;-73
2022/02/17 06:47:36;;;;;;;1.20;0.20;;;11.20;96.00;;;;;;5055144;28;20098;-72
2022/02/17 06:50:04;;;;;;;0.10;0.10;;;11.30;64.50;;;;;;5054824;28;20033;-72
2022/02/17 06:52:30;;;;;;;0.10;0.10;;;11.30;57.50;;;;;;5054955;28;20056;-72
2022/02/17 06:54:56;;;;;;;0.22;0.10;;;11.40;33.10;;;;;;5055059;28;20041;-72
2022/02/17 06:57:23;;;;;;;0.30;0.25;;;11.30;64.20;;;;;;5054740;28;20079;-72
2022/02/17 06:59:50;;;;;;;2.58;0.40;;;11.40;56.10;;;;;;5054777;28;20064;-72
2022/02/17 07:02:21;;;;;;;0.10;0.10;;;11.50;44.80;;;;;;5054266;28;20040;-72
2022/02/17 07:04:47;;;;;;;0.10;0.10;;;11.40;38.30;;;;;;5055230;28;20087;-73
2022/02/17 07:07:13;;;;;;;0.20;0.15;;;11.50;38.20;;;;;;5054840;28;20037;-72
2022/02/17 07:09:39;;;;;;;0.20;0.10;;;11.40;45.30;;;;;;5055084;28;20037;-73
2022/02/17 07:12:05;;;;;;;0.17;0.17;;;11.50;47.10;;;;;;5054294;28;20041;-73
2022/02/17 07:14:31;;;;;;;0.17;0.17;;;11.50;41.20;;;;;;5054817;28;20163;-73
2022/02/17 07:16:59;;;;;;;0.20;0.20;;;11.50;57.50;;;;;;5055239;28;20483;-72
2022/02/17 07:19:25;;;;;;;0.63;0.32;;;11.50;36.60;;;;;;5054561;28;20043;-72
2022/02/17 07:21:51;;;;;;;0.65;0.35;;;11.50;63.00;;;;;;5054665;28;20143;-73
2022/02/17 07:24:18;;;;;;;1.77;0.63;;;11.50;61.40;;;;;;5054918;28;20056;-73
2022/02/17 07:26:45;;;;;;;0.50;0.50;;;11.40;66.70;;;;;;5054767;28;20036;-72
2022/02/17 07:29:11;;;;;;;0.45;0.40;;;11.40;64.30;;;;;;5054569;28;20052;-72
2022/02/17 07:31:37;;;;;;;0.20;0.20;;;11.60;39.90;;;;;;5054729;28;20557;-73
2022/02/17 07:34:03;;;;;;;0.17;0.17;;;11.50;29.20;;;;;;5054847;28;20045;-73
2022/02/17 07:36:30;;;;;;;1.42;0.20;;;11.50;52.90;;;;;;5054271;28;20387;-72
2022/02/17 07:38:55;;;;;;;1.13;0.10;;;11.50;59.60;;;;;;5054751;28;20045;-73
2022/02/17 07:41:22;;;;;;;0.20;0.20;;;11.50;75.30;;;;;;5054305;28;20548;-73
2022/02/17 07:43:48;;;;;;;0.57;0.10;;;11.50;79.70;;;;;;5054028;28;20045;-72
2022/02/17 07:46:14;;;;;;;0.10;0.10;;;11.50;67.80;;;;;;5054373;28;20036;-72
2022/02/17 07:48:40;;;;;;;0.10;0.10;;;11.50;75.10;;;;;;5054263;28;20037;-72
2022/02/17 07:51:06;;;;;;;0.10;0.10;;;11.50;58.40;;;;;;5054582;28;20139;-72
2022/02/17 07:53:33;;;;;;;0.10;0.10;;;11.50;59.90;;;;;;5049802;28;20052;-71
2022/02/17 07:55:59;;;;;;;0.10;0.10;;;11.50;59.70;;;;;;5045089;28;20048;-72
2022/02/17 07:58:26;;;;;;;0.63;0.30;;;11.50;66.80;;;;;;5045321;28;20123;-72
2022/02/17 08:00:53;;;;;;;0.20;0.20;;;11.60;42.40;;;;;;5048224;28;20758;-71
2022/02/17 08:03:19;;;;;;;0.17;0.17;;;11.60;37.70;;;;;;5040524;28;20081;-72
2022/02/17 08:05:45;;;;;;;0.17;0.17;;;11.70;40.20;;;;;;5052814;28;20065;-72
2022/02/17 08:08:12;;;;;;;0.30;0.20;;;11.70;42.20;;;;;;5048484;28;20041;-72
2022/02/17 08:10:39;;;;;;;0.28;0.20;;;11.70;58.40;;;;;;5034191;28;20041;-72
2022/02/17 08:13:06;;;;;;;0.35;0.32;;;11.70;29.20;;;;;;5035335;28;20095;-72
2022/02/17 08:15:32;;;;;;;0.20;0.20;;;11.70;40.70;;;;;;5037898;28;20037;-71
2022/02/17 08:17:59;;;;;;;0.30;0.30;;;11.80;37.60;;;;;;5038200;28;20053;-72
2022/02/17 08:20:25;;;;;;;0.30;0.30;;;11.80;51.80;;;;;;5037832;28;20045;-73
2022/02/17 08:22:54;;;;;;;0.43;0.20;;;11.80;40.70;;;;;;5056209;28;20063;-72
2022/02/17 08:25:21;;;;;;;0.30;0.30;;;11.90;45.60;;;;;;5050684;28;20048;-72
2022/02/17 08:27:48;;;;;;;0.22;0.22;;;11.90;44.00;;;;;;5035440;28;20037;-72
2022/02/17 08:30:14;;;;;;;0.95;0.45;;;11.90;36.00;;;;;;5041251;28;20033;-72
2022/02/17 08:32:41;;;;;;;0.20;0.20;;;11.90;59.80;;;;;;5056814;28;20496;-72
2022/02/17 08:35:08;;;;;;;0.35;0.30;;;12.10;27.80;;;;;;5057709;28;20064;-71
2022/02/17 08:37:34;;;;;;;0.25;0.22;;;12.10;29.60;;;;;;5053232;28;20040;-72
2022/02/17 08:40:00;;;;;;;1.00;0.20;;;12.10;47.10;;;;;;5052494;28;20033;-72
2022/02/17 08:42:26;;;;;;;0.20;0.20;;;12.10;51.20;;;;;;5047108;28;20056;-72
2022/02/17 08:44:52;;;;;;;0.25;0.20;;;12.10;48.70;;;;;;5037906;28;20523;-72
2022/02/17 08:47:19;;;;;;;0.95;0.30;;;12.20;25.60;;;;;;5054202;28;20049;-72
2022/02/17 08:50:09;;;;;;;0.22;0.17;;;12.20;26.00;;;;;;5049396;28;20044;-72
2022/02/17 08:52:36;;;;;;;0.10;0.10;;;12.30;29.10;;;;;;5015951;28;20549;-71
2022/02/17 08:55:02;;;;;;;0.52;0.20;;;12.20;27.70;;;;;;5036099;28;20048;-72
2022/02/17 08:57:28;;;;;;;0.60;0.32;;;12.30;45.00;;;;;;5035765;28;20041;-71
2022/02/17 08:59:54;;;;;;;0.20;0.20;;;12.10;75.30;;;;;;5036520;28;20044;-71
2022/02/17 09:02:19;;;;;;;0.20;0.20;;;12.10;46.10;;;;;;5053492;28;20069;-71
2022/02/17 09:04:45;;;;;;;0.63;0.47;;;12.10;40.60;;;;;;5038435;28;20037;-71
2022/02/17 09:07:11;;;;;;;2.97;0.40;;;12.20;24.40;;;;;;5036821;28;20454;-71
2022/02/17 09:09:37;;;;;;;0.20;0.20;;;12.30;19.40;;;;;;5038284;28;20061;-72
2022/02/17 09:12:03;;;;;;;0.40;0.20;;;12.40;28.80;;;;;;5049311;28;20033;-71
2022/02/17 09:14:29;;;;;;;0.20;0.20;;;12.40;9.30;;;;;;5056102;28;20064;-72
2022/02/17 09:16:54;;;;;;;0.43;0.20;;;12.40;25.70;;;;;;5057020;28;20072;-72
2022/02/17 09:19:21;;;;;;;0.20;0.20;;;12.40;27.50;;;;;;5056245;28;20029;-72
2022/02/17 09:21:47;;;;;;;0.20;0.20;;;12.40;21.80;;;;;;5034499;28;20080;-72
2022/02/17 09:24:13;;;;;;;0.55;0.30;;;12.40;22.10;;;;;;5047091;28;20080;-72
2022/02/17 09:26:38;;;;;;;1.65;0.40;;;12.60;10.20;;;;;;5036179;28;20512;-71
2022/02/17 09:29:08;;;;;;;0.32;0.30;;;12.60;2.70;;;;;;5056088;28;20045;-72
2022/02/17 09:31:34;;;;;;;0.52;0.30;;;12.60;15.80;;;;;;5056443;28;20510;-71
2022/02/17 09:34:00;;;;;;;0.30;0.20;;;12.60;15.00;;;;;;5051885;28;20049;-72
2022/02/17 09:36:27;;;;;;;1.40;0.30;;;12.80;5.20;;;;;;5048274;28;20041;-72
2022/02/17 09:38:56;;;;;;;0.47;0.45;;;12.80;10.70;;;;;;5050391;28;20040;-71
2022/02/17 09:41:23;;;;;;;0.30;0.30;;;12.80;19.60;;;;;;5056447;28;20041;-72
2022/02/17 09:43:52;;;;;;;0.73;0.40;;;13.00;2.60;;;;;;5047724;28;20048;-71
2022/02/17 09:46:21;;;;;;;1.95;1.05;;;13.00;11.80;;;;;;5036342;28;20044;-71
2022/02/17 09:49:01;;;;;;;0.20;0.20;;;13.10;1.00;;;;;;5044823;28;20142;-72
2022/02/17 09:51:32;;;;;;;2.03;0.45;;;12.90;1.00;;;;;;5055560;28;20048;-72
2022/02/17 09:54:00;;;;;;;0.32;0.30;;;12.80;4.50;;;;;;5045669;28;20056;-71
2022/02/17 09:56:26;;;;;;;0.93;0.20;;;12.70;4.10;;;;;;5047811;28;20029;-71
2022/02/17 09:58:53;;;;;;;0.38;0.30;;;12.60;21.00;;;;;;5035930;28;20045;-72
2022/02/17 10:01:26;;;;;;;1.30;0.57;;;12.60;28.70;;;;;;5035768;28;20503;-71
2022/02/17 10:04:18;;;;;;;0.60;0.30;;;12.50;41.30;;;;;;5035826;28;20049;-70
2022/02/17 10:06:46;;;;;;;0.77;0.50;;;12.40;53.10;;;;;;5036848;28;20484;-70
2022/02/17 10:09:13;;;;;;;0.77;0.45;;;12.50;59.70;;;;;;5035927;28;20064;-71
2022/02/17 10:11:40;;;;;;;1.80;1.30;;;12.30;77.60;;;;;;5043578;28;20621;-71
2022/02/17 10:14:12;;;;;;;1.58;0.70;;;12.50;51.80;;;;;;5040174;28;20130;-71
2022/02/17 10:16:55;;;;;;;2.75;1.20;;;12.50;44.10;;;;;;5036728;28;20128;-72
2022/02/17 10:19:23;;;;;;;1.58;1.02;;;12.60;69.60;;;;;;5053630;28;20033;-71
2022/02/17 10:21:50;;;;;;;2.28;0.98;;;12.90;31.20;;;;;;5047104;28;20120;-72
2022/02/17 10:24:33;;;;;;;2.60;0.80;;;13.10;21.70;;;;;;5033824;28;20052;-72
2022/02/17 10:27:10;;;;;;;1.52;0.82;;;13.30;1.00;;;;;;5038203;28;20052;-72
2022/02/17 10:29:37;;;;;;;1.60;1.10;;;13.30;10.30;;;;;;5047738;28;20128;-72
2022/02/17 10:32:12;;;;;;;2.45;1.27;;;13.40;10.00;;;;;;5034599;28;20547;-71
2022/02/17 10:34:42;;;;;;;1.27;0.60;;;13.40;2.60;;;;;;5037772;28;20605;-71
2022/02/17 10:37:09;;;;;;;1.10;0.50;;;13.40;1.00;;;;;;5035108;28;20045;-71
2022/02/17 10:39:42;;;;;;;0.77;0.60;;;13.50;5.30;;;;;;5034532;28;20515;-71
2022/02/17 10:42:10;;;;;;;0.70;0.40;;;13.30;1.00;;;;;;5034570;28;20041;-71
2022/02/17 10:44:42;;;;;;;0.90;0.70;;;13.40;1.20;;;;;;5052629;28;20037;-71
2022/02/17 10:47:12;;;;;;;0.30;0.30;;;13.40;5.10;;;;;;5053409;28;20128;-70
2022/02/17 10:49:43;;;;;;;0.37;0.20;;;13.40;15.30;;;;;;5053416;28;20036;-71
2022/02/17 10:52:09;;;;;;;;;;;13.40;12.90;;;;;;5033664;28;20306;-71
2022/02/17 10:54:35;;;;;;;0.52;0.50;;;13.40;15.80;;;;;;5051621;28;19909;-71
2022/02/17 10:57:06;;;;;;;1.10;0.45;;;13.40;30.40;;;;;;5054598;28;20029;-71
2022/02/17 11:00:00;;;;;;;0.63;0.32;;;13.40;32.20;;;;;;5052710;28;20060;-71
2022/02/17 11:02:25;;;;;;;2.05;0.50;;;13.40;7.70;;;;;;5051240;28;20129;-71
2022/02/17 11:04:51;;;;;;;0.50;0.20;;;13.50;16.20;;;;;;5036318;28;20128;-71
2022/02/17 11:07:18;;;;;;;0.28;0.20;;;13.40;16.90;;;;;;5035118;28;20033;-71
2022/02/17 11:09:45;;;;;;;0.63;0.40;;;13.40;17.20;;;;;;5034993;28;20042;-71
2022/02/17 11:12:11;;;;;;;0.60;0.40;;;13.50;2.60;;;;;;5034623;28;20038;-71
2022/02/17 11:14:42;;;;;;;0.45;0.30;;;13.50;13.90;;;;;;5049105;28;20086;-70
2022/02/17 11:17:09;;;;;;;;;;;13.50;12.30;;;;;;5036291;28;20037;-71
2022/02/17 11:19:36;;;;;;;2.55;0.50;;;13.40;1.00;;;;;;5034510;28;19909;-71
2022/02/17 11:22:03;;;;;;;2.40;0.50;;;13.40;1.00;;;;;;5034247;28;20037;-71
2022/02/17 11:24:29;;;;;;;0.75;0.30;;;13.30;1.00;;;;;;5033507;28;20052;-71
2022/02/17 11:27:06;;;;;;;1.17;0.40;;;13.30;1.00;;;;;;5052516;28;20037;-70
2022/02/17 11:29:33;;;;;;;1.25;0.40;;;13.40;26.60;;;;;;5054535;28;20040;-71
2022/02/17 11:32:05;;;;;;;1.90;0.40;;;13.40;2.80;;;;;;5053867;28;20112;-71
2022/02/17 11:34:42;;;;;;;1.33;0.50;;;13.40;1.00;;;;;;5052185;28;20061;-71
2022/02/17 11:37:23;;;;;;;0.65;0.40;;;13.60;1.00;;;;;;5054107;28;20033;-71
2022/02/17 11:39:58;;;;;;;0.50;0.50;;;13.50;1.00;;;;;;5054074;28;20589;-71
2022/02/17 11:42:29;;;;;;;0.57;0.45;;;13.50;1.00;;;;;;5054172;28;20542;-71
2022/02/17 11:45:09;;;;;;;2.40;0.50;;;13.60;1.00;;;;;;5038130;28;20037;-72
2022/02/17 11:48:01;;;;;;;0.55;0.40;;;13.60;1.00;;;;;;5032651;28;20037;-71
2022/02/17 11:50:46;;;;;;;1.90;0.40;;;13.60;1.00;;;;;;5029927;28;20034;-71
2022/02/17 11:53:32;;;;;;;0.47;0.30;;;13.70;1.00;;;;;;5033700;28;20048;-71
2022/02/17 11:56:09;;;;;;;1.70;0.80;;;13.70;1.00;;;;;;5034944;28;20067;-71
2022/02/17 11:58:41;;;;;;;3.10;1.00;;;13.70;1.00;;;;;;5036889;28;20082;-71
2022/02/17 12:01:32;;;;;;;2.72;1.50;;;13.70;1.00;;;;;;5052561;28;20044;-72
2022/02/17 12:04:14;;;;;;;;;;;13.70;1.00;;;;;;5052152;28;20045;-72
2022/02/17 12:06:46;;;;;;;1.40;0.80;;;13.60;1.00;;;;;;5051723;28;19908;-72
2022/02/17 12:09:43;;;;;;;0.47;0.47;;;13.60;1.00;;;;;;5053493;28;20037;-71
2022/02/17 12:12:09;;;;;;;0.63;0.60;;;13.70;1.00;;;;;;5053392;28;20079;-72
2022/02/17 12:14:38;;;;;;;1.73;0.68;;;13.80;1.00;;;;;;5044637;28;20057;-70
2022/02/17 12:17:07;;;;;;;1.58;0.70;;;13.70;1.00;;;;;;5032846;28;20033;-71
2022/02/17 12:19:33;;;;;;;1.85;0.50;;;13.70;1.00;;;;;;5038802;28;20045;-70
2022/02/17 12:22:07;;;;;;;1.30;0.85;;;13.70;1.00;;;;;;5034343;28;20088;-70
2022/02/17 12:24:33;;;;;;;2.28;0.70;;;13.70;1.00;;;;;;5034505;28;20045;-71
2022/02/17 12:26:59;;;;;;;1.30;0.73;;;13.90;1.00;;;;;;5032995;28;20038;-71
2022/02/17 12:29:33;;;;;;;2.70;0.70;;;13.70;1.00;;;;;;5033252;28;20114;-70
2022/02/17 12:32:04;;;;;;;1.00;0.50;;;13.60;1.00;;;;;;5034873;28;20038;-71
2022/02/17 12:34:30;;;;;;;1.83;0.60;;;13.70;1.00;;;;;;5044098;28;20133;-70
2022/02/17 12:36:56;;;;;;;1.77;0.50;;;13.70;1.00;;;;;;5033762;28;20085;-70
2022/02/17 12:39:30;;;;;;;1.63;0.52;;;13.80;1.00;;;;;;5033955;28;20400;-70
2022/02/17 12:41:56;;;;;;;0.88;0.30;;;13.80;1.00;;;;;;5018019;28;20044;-71
2022/02/17 12:44:34;;;;;;;1.13;0.52;;;13.90;1.00;;;;;;5053552;28;20036;-71
2022/02/17 12:47:01;;;;;;;2.35;0.70;;;13.80;1.00;;;;;;5054186;28;20037;-71
2022/02/17 12:49:30;;;;;;;1.77;0.60;;;13.60;1.00;;;;;;5052711;28;20365;-71
2022/02/17 12:52:17;;;;;;;2.55;1.27;;;13.60;5.90;;;;;;5052977;28;20701;-71
2022/02/17 12:54:57;;;;;;;1.13;0.52;;;13.60;1.00;;;;;;5034006;28;20037;-71
2022/02/17 12:57:27;;;;;;;1.52;0.70;;;13.70;13.60;;;;;;5033980;28;20044;-71